Time;durP1;ratioP1;P1;durP2;ratioP2;P2;SDS_P1;SDS_P2;PMS_P1;PMS_P2;Temp;Humidity;BMP_temperature;BMP_pressure;BME280_temperature;BME280_humidity;BME280_pressure;Samples;Min_cycle;Max_cycle;Signal;HPM_P1;HPM_P2
2022/04/14 00:00:14;;;;;;;10.43;7.00;;;;;;;7.31;nan;98858.53;4972353;28;20039;-57
2022/04/14 00:02:40;;;;;;;9.30;5.83;;;;;;;7.20;nan;98856.00;4974126;28;20129;-59
2022/04/14 00:05:06;;;;;;;10.00;5.57;;;;;;;7.14;nan;98852.59;4971540;28;20505;-58
2022/04/14 00:07:31;;;;;;;5.47;4.73;;;;;;;7.07;nan;98843.28;4972079;28;20084;-58
2022/04/14 00:09:57;;;;;;;8.40;4.93;;;;;;;6.96;nan;98838.19;4974379;28;20082;-58
2022/04/14 00:12:22;;;;;;;9.67;4.87;;;;;;;6.94;nan;98855.19;4975819;28;20030;-58
2022/04/14 00:14:48;;;;;;;6.30;5.40;;;;;;;6.94;nan;98842.44;4970906;28;20034;-58
2022/04/14 00:17:13;;;;;;;6.70;4.53;;;;;;;6.85;nan;98827.16;4970097;28;20560;-58
2022/04/14 00:19:40;;;;;;;6.13;4.17;;;;;;;6.80;nan;98845.00;4972764;28;20026;-57
2022/04/14 00:22:05;;;;;;;8.77;5.23;;;;;;;6.71;nan;98846.69;4974679;28;20125;-57
2022/04/14 00:24:31;;;;;;;6.70;4.70;;;;;;;6.65;nan;98844.16;4970662;28;20436;-59
2022/04/14 00:26:56;;;;;;;5.63;4.60;;;;;;;6.54;nan;98841.59;4970967;28;20078;-58
2022/04/14 00:29:22;;;;;;;8.07;5.00;;;;;;;6.58;nan;98839.91;4974279;28;20042;-58
2022/04/14 00:31:47;;;;;;;7.17;5.07;;;;;;;6.50;nan;98831.41;4972972;28;20035;-57
2022/04/14 00:34:13;;;;;;;7.30;5.00;;;;;;;6.52;nan;98839.91;4970603;28;20043;-58
2022/04/14 00:36:38;;;;;;;6.00;4.23;;;;;;;6.38;nan;98814.44;4970272;28;20026;-59
2022/04/14 00:39:04;;;;;;;5.20;4.70;;;;;;;6.43;nan;98833.97;4972582;28;20646;-59
2022/04/14 00:41:29;;;;;;;6.17;4.80;;;;;;;6.43;nan;98833.97;4971081;28;20026;-58
2022/04/14 00:43:55;;;;;;;7.93;4.77;;;;;;;6.39;nan;98837.38;4969714;28;20042;-58
2022/04/14 00:46:21;;;;;;;5.83;4.43;;;;;;;6.28;nan;98830.56;4970982;28;20204;-59
2022/04/14 00:48:48;;;;;;;8.90;4.60;;;;;;;6.28;nan;98828.03;4973150;28;20034;-58
2022/04/14 00:51:14;;;;;;;6.87;4.83;;;;;;;6.18;nan;98827.16;4971311;28;20194;-58
2022/04/14 00:53:40;;;;;;;6.60;4.83;;;;;;;6.17;nan;98828.00;4970276;28;20056;-58
2022/04/14 00:56:06;;;;;;;5.73;4.70;;;;;;;6.19;nan;98844.13;4971183;28;20037;-58
2022/04/14 00:58:33;;;;;;;4.57;4.17;;;;;;;6.05;nan;98832.22;4973126;28;20061;-59
2022/04/14 01:01:00;;;;;;;5.40;4.90;;;;;;;6.07;nan;98844.09;4972780;28;20488;-59
2022/04/14 01:03:26;;;;;;;7.07;4.47;;;;;;;6.01;nan;98843.25;4969733;28;20033;-58
2022/04/14 01:05:53;;;;;;;7.93;4.47;;;;;;;5.99;nan;98840.69;4973403;28;20043;-58
2022/04/14 01:08:19;;;;;;;5.33;4.20;;;;;;;5.89;nan;98834.75;4972614;28;20030;-58
2022/04/14 01:10:47;;;;;;;7.03;4.37;;;;;;;5.90;nan;98838.09;4970003;28;20416;-59
2022/04/14 01:13:18;;;;;;;5.60;4.43;;;;;;;5.98;nan;98839.00;4969300;28;20038;-58
2022/04/14 01:15:47;;;;;;;5.50;4.77;;;;;;;6.04;nan;98841.53;4971420;28;20479;-58
2022/04/14 01:18:14;;;;;;;8.33;4.20;;;;;;;5.93;nan;98844.06;4972403;28;20030;-57
2022/04/14 01:20:41;;;;;;;5.67;4.77;;;;;;;5.83;nan;98821.09;4970001;28;20027;-58
2022/04/14 01:23:09;;;;;;;6.43;4.73;;;;;;;5.86;nan;98849.09;4969806;28;20289;-58
2022/04/14 01:25:36;;;;;;;7.97;5.53;;;;;;;5.60;nan;98803.22;4972712;28;20476;-58
2022/04/14 01:28:03;;;;;;;6.40;5.13;;;;;;;5.73;nan;98829.56;4972627;28;20136;-57
2022/04/14 01:30:30;;;;;;;9.13;5.63;;;;;;;5.74;nan;98834.63;4968518;28;20026;-58
2022/04/14 01:32:56;;;;;;;6.53;5.57;;;;;;;5.76;nan;98838.06;4970458;28;20034;-58
2022/04/14 01:35:22;;;;;;;7.47;5.60;;;;;;;5.71;nan;98836.34;4971032;28;20054;-58
2022/04/14 01:37:48;;;;;;;9.17;6.33;;;;;;;5.64;nan;98824.44;4972400;28;20045;-57
2022/04/14 01:40:14;;;;;;;7.70;5.73;;;;;;;5.64;nan;98821.91;4969320;28;20035;-58
2022/04/14 01:42:41;;;;;;;9.17;7.47;;;;;;;5.60;nan;98818.47;4969616;28;20389;-59
2022/04/14 01:45:09;;;;;;;6.73;4.93;;;;;;;5.67;nan;98827.00;4970419;28;20073;-58
2022/04/14 01:47:42;;;;;;;12.60;5.87;;;;;;;5.66;nan;98850.72;4971590;28;20109;-57
2022/04/14 01:50:10;;;;;;;7.23;5.80;;;;;;;5.66;nan;98840.53;4969214;28;20400;-58
2022/04/14 01:52:36;;;;;;;9.33;6.17;;;;;;;5.58;nan;98850.69;4970876;28;20204;-58
2022/04/14 01:55:03;;;;;;;6.60;5.23;;;;;;;5.56;nan;98843.91;4971151;28;20477;-57
2022/04/14 01:57:29;;;;;;;7.00;6.03;;;;;;;5.51;nan;98843.88;4971118;28;20176;-59
2022/04/14 01:59:57;;;;;;;8.97;6.03;;;;;;;5.57;nan;98838.81;4970817;28;20038;-59
2022/04/14 02:02:22;;;;;;;8.90;5.77;;;;;;;5.50;nan;98829.47;4971782;28;20086;-58
2022/04/14 02:04:48;;;;;;;7.37;5.10;;;;;;;5.51;nan;98847.28;4975351;28;20484;-58
2022/04/14 02:07:14;;;;;;;6.20;5.27;;;;;;;5.46;nan;98833.69;4972304;28;20577;-58
2022/04/14 02:09:39;;;;;;;8.97;5.00;;;;;;;5.34;nan;98812.47;4972649;28;20031;-58
2022/04/14 02:12:05;;;;;;;6.80;6.10;;;;;;;5.56;nan;98836.28;4978165;28;20385;-59
2022/04/14 02:14:30;;;;;;;7.63;5.80;;;;;;;5.37;nan;98812.47;4980373;28;20031;-58
2022/04/14 02:16:56;;;;;;;6.57;5.43;;;;;;;5.55;nan;98844.75;4978038;28;20551;-58
2022/04/14 02:19:21;;;;;;;6.40;5.23;;;;;;;5.47;nan;98821.84;4977116;28;20035;-58
2022/04/14 02:21:47;;;;;;;6.97;5.30;;;;;;;5.49;nan;98827.75;4980370;28;20416;-58
2022/04/14 02:24:12;;;;;;;8.70;5.10;;;;;;;5.35;nan;98824.28;4979426;28;20469;-58
2022/04/14 02:26:38;;;;;;;6.97;5.77;;;;;;;5.37;nan;98833.66;4975265;28;20039;-58
2022/04/14 02:29:03;;;;;;;6.67;5.60;;;;;;;5.33;nan;98831.94;4975940;28;20039;-58
2022/04/14 02:31:29;;;;;;;7.77;5.57;;;;;;;5.30;nan;98837.00;4976500;28;20034;-58
2022/04/14 02:33:54;;;;;;;5.67;5.07;;;;;;;5.28;nan;98830.19;4975301;28;20533;-58
2022/04/14 02:36:20;;;;;;;6.10;5.50;;;;;;;5.10;nan;98805.53;4972226;28;20545;-58
2022/04/14 02:38:45;;;;;;;8.30;5.57;;;;;;;5.19;nan;98830.16;4973745;28;20491;-58
2022/04/14 02:41:11;;;;;;;6.73;5.80;;;;;;;5.12;nan;98810.63;4974935;28;20527;-59
2022/04/14 02:43:37;;;;;;;10.37;6.23;;;;;;;5.13;nan;98808.13;4973869;28;20117;-58
2022/04/14 02:46:04;;;;;;;8.10;5.77;;;;;;;5.16;nan;98822.53;4973016;28;20331;-59
2022/04/14 02:48:30;;;;;;;6.37;5.73;;;;;;;5.12;nan;98819.13;4974236;28;20088;-58
2022/04/14 02:50:56;;;;;;;7.63;5.23;;;;;;;4.98;nan;98798.69;4976592;28;20035;-58
2022/04/14 02:53:21;;;;;;;6.40;5.20;;;;;;;5.07;nan;98808.06;4973648;28;20030;-58
2022/04/14 02:55:47;;;;;;;6.93;6.23;;;;;;;5.17;nan;98814.91;4972062;28;20484;-57
2022/04/14 02:58:13;;;;;;;7.47;5.63;;;;;;;5.09;nan;98796.25;4974598;28;20043;-58
2022/04/14 03:00:39;;;;;;;8.87;5.87;;;;;;;5.23;nan;98803.91;4973636;28;20394;-59
2022/04/14 03:03:04;;;;;;;8.10;5.47;;;;;;;5.19;nan;98803.06;4975461;28;20037;-60
2022/04/14 03:05:30;;;;;;;7.00;4.90;;;;;;;5.15;nan;98803.88;4970689;28;20084;-57
2022/04/14 03:07:55;;;;;;;7.90;6.17;;;;;;;4.96;nan;98780.09;4975722;28;20451;-58
2022/04/14 03:10:21;;;;;;;8.27;5.27;;;;;;;4.98;nan;98791.09;4974667;28;20560;-58
2022/04/14 03:12:46;;;;;;;7.83;6.00;;;;;;;5.00;nan;98786.03;4972475;28;20069;-58
2022/04/14 03:15:13;;;;;;;9.60;6.67;;;;;;;4.95;nan;98791.06;4973115;28;20038;-58
2022/04/14 03:17:38;;;;;;;8.47;5.83;;;;;;;4.95;nan;98792.75;4974853;28;20030;-59
2022/04/14 03:20:05;;;;;;;8.53;6.13;;;;;;;4.96;nan;98790.25;4973992;28;20037;-58
2022/04/14 03:22:33;;;;;;;9.10;6.63;;;;;;;4.98;nan;98791.09;4972710;28;20027;-62
2022/04/14 03:25:04;;;;;;;8.50;6.20;;;;;;;4.80;nan;98772.34;4971478;28;20062;-58
2022/04/14 03:27:30;;;;;;;8.53;6.57;;;;;;;4.80;nan;98777.41;4974598;28;20050;-58
2022/04/14 03:29:56;;;;;;;10.80;6.27;;;;;;;4.84;nan;98791.81;4973842;28;20030;-59
2022/04/14 03:32:25;;;;;;;11.77;6.33;;;;;;;4.80;nan;98797.72;4970016;28;20177;-59
2022/04/14 03:34:53;;;;;;;8.73;6.27;;;;;;;4.58;nan;98766.28;4972328;28;20093;-59
2022/04/14 03:37:19;;;;;;;9.60;5.80;;;;;;;4.88;nan;98798.66;4973171;28;20026;-59
2022/04/14 03:39:45;;;;;;;10.90;6.30;;;;;;;4.72;nan;98790.06;4973679;28;20035;-62
2022/04/14 03:42:11;;;;;;;7.37;5.77;;;;;;;4.80;nan;98803.66;4972555;28;20500;-58
2022/04/14 03:44:36;;;;;;;7.87;5.07;;;;;;;4.71;nan;98790.91;4971748;28;20571;-59
2022/04/14 03:47:02;;;;;;;5.97;5.27;;;;;;;4.68;nan;98787.50;4971581;28;20390;-58
2022/04/14 03:49:27;;;;;;;9.87;6.23;;;;;;;4.58;nan;98777.28;4972388;28;20568;-58
2022/04/14 03:51:54;;;;;;;10.33;6.47;;;;;;;4.65;nan;98793.41;4970893;28;20392;-58
2022/04/14 03:54:20;;;;;;;7.83;5.53;;;;;;;4.60;nan;98793.38;4971900;28;20034;-61
2022/04/14 03:56:46;;;;;;;8.30;6.10;;;;;;;4.63;nan;98802.69;4972546;28;20194;-58
2022/04/14 03:59:13;;;;;;;10.43;5.93;;;;;;;4.58;nan;98799.28;4970449;28;20057;-58
2022/04/14 04:01:39;;;;;;;7.10;6.27;;;;;;;4.58;nan;98801.84;4972197;28;20038;-57
2022/04/14 04:04:04;;;;;;;7.10;5.43;;;;;;;4.58;nan;98800.13;4974662;28;20513;-58
2022/04/14 04:06:29;;;;;;;9.23;6.07;;;;;;;4.67;nan;98801.88;4973792;28;20690;-58
2022/04/14 04:08:55;;;;;;;9.73;5.93;;;;;;;4.72;nan;98802.75;4971797;28;20034;-58
2022/04/14 04:11:20;;;;;;;8.23;6.10;;;;;;;4.76;nan;98807.03;4970744;28;20544;-58
2022/04/14 04:13:46;;;;;;;9.40;5.90;;;;;;;4.76;nan;98801.09;4972505;28;20022;-58
2022/04/14 04:16:11;;;;;;;7.57;6.00;;;;;;;4.73;nan;98796.00;4972975;28;20422;-58
2022/04/14 04:18:36;;;;;;;8.27;6.00;;;;;;;4.68;nan;98806.13;4970550;28;20030;-58
2022/04/14 04:21:02;;;;;;;10.87;6.63;;;;;;;4.66;nan;98809.50;4971094;28;20585;-59
2022/04/14 04:23:27;;;;;;;10.43;6.30;;;;;;;4.64;nan;98816.25;4972604;28;20058;-57
2022/04/14 04:25:53;;;;;;;9.20;7.30;;;;;;;4.77;nan;98815.50;4972726;28;20031;-59
2022/04/14 04:28:18;;;;;;;10.03;5.93;;;;;;;4.82;nan;98812.16;4968508;28;20422;-59
2022/04/14 04:30:44;;;;;;;7.50;5.97;;;;;;;4.81;nan;98804.50;4970112;28;20089;-58
2022/04/14 04:33:09;;;;;;;7.93;5.70;;;;;;;4.69;nan;98796.81;4972103;28;20038;-59
2022/04/14 04:35:35;;;;;;;9.13;6.10;;;;;;;4.59;nan;98781.50;4972026;28;20034;-59
2022/04/14 04:38:00;;;;;;;9.77;6.67;;;;;;;4.77;nan;98812.97;4969823;28;20365;-59
2022/04/14 04:40:26;;;;;;;9.03;6.07;;;;;;;4.71;nan;98807.84;4970546;28;20485;-59
2022/04/14 04:42:51;;;;;;;11.80;6.67;;;;;;;4.80;nan;98818.03;4972520;28;20034;-59
2022/04/14 04:45:16;;;;;;;10.13;6.57;;;;;;;4.90;nan;98817.28;4972582;28;20113;-59
2022/04/14 04:47:42;;;;;;;6.83;5.70;;;;;;;4.90;nan;98818.13;4968702;28;20380;-59
2022/04/14 04:50:08;;;;;;;7.07;6.33;;;;;;;4.95;nan;98819.03;4970586;28;20031;-59
2022/04/14 04:52:35;;;;;;;13.37;6.60;;;;;;;4.87;nan;98802.88;4970635;28;20042;-59
2022/04/14 04:55:00;;;;;;;10.13;6.67;;;;;;;5.05;nan;98815.66;4972439;28;20062;-60
2022/04/14 04:57:26;;;;;;;8.17;6.10;;;;;;;5.07;nan;98818.22;4969495;28;20579;-59
2022/04/14 04:59:51;;;;;;;10.80;6.33;;;;;;;5.16;nan;98825.91;4970701;28;20421;-59
2022/04/14 05:02:16;;;;;;;8.13;5.97;;;;;;;5.25;nan;98825.97;4972712;28;20070;-62
2022/04/14 05:04:42;;;;;;;8.10;6.30;;;;;;;5.41;nan;98827.72;4972198;28;20045;-59
2022/04/14 05:07:07;;;;;;;6.67;5.37;;;;;;;5.53;nan;98824.38;4969730;28;20039;-58
2022/04/14 05:09:34;;;;;;;10.63;5.90;;;;;;;5.51;nan;98816.78;4972073;28;20083;-61
2022/04/14 05:11:59;;;;;;;8.63;6.37;;;;;;;5.66;nan;98815.13;4973509;28;20041;-59
2022/04/14 05:14:25;;;;;;;8.40;5.33;;;;;;;5.68;nan;98803.25;4970640;28;20464;-60
2022/04/14 05:16:50;;;;;;;10.03;6.70;;;;;;;5.85;nan;98820.28;4968802;28;20713;-59
2022/04/14 05:19:16;;;;;;;7.20;5.33;;;;;;;6.06;nan;98816.97;4972397;28;20117;-59
2022/04/14 05:21:41;;;;;;;6.33;4.87;;;;;;;6.15;nan;98793.22;4972263;28;20042;-59
2022/04/14 05:24:07;;;;;;;8.00;5.53;;;;;;;6.37;nan;98807.66;4970572;28;20453;-59
2022/04/14 05:26:32;;;;;;;6.77;5.70;;;;;;;6.45;nan;98794.94;4969510;28;20038;-59
2022/04/14 05:28:58;;;;;;;7.27;5.47;;;;;;;6.66;nan;98807.66;4971676;28;20046;-58
2022/04/14 05:31:23;;;;;;;7.93;5.60;;;;;;;6.74;nan;98793.22;4973238;28;20037;-58
2022/04/14 05:33:49;;;;;;;9.83;6.07;;;;;;;6.94;nan;98804.22;4971732;28;20030;-59
2022/04/14 05:36:14;;;;;;;8.40;6.20;;;;;;;7.16;nan;98799.94;4971138;28;20381;-59
2022/04/14 05:38:40;;;;;;;5.87;5.17;;;;;;;7.29;nan;98783.75;4970590;28;20487;-59
2022/04/14 05:41:06;;;;;;;8.07;4.87;;;;;;;7.55;nan;98794.69;4974298;28;20057;-59
2022/04/14 05:43:31;;;;;;;11.50;5.40;;;;;;;7.61;nan;98788.69;4969199;28;20465;-59
2022/04/14 05:45:57;;;;;;;16.20;8.80;;;;;;;7.81;nan;98803.06;4968916;28;20463;-59
2022/04/14 05:48:23;;;;;;;19.00;8.60;;;;;;;8.04;nan;98802.06;4971869;28;20073;-59
2022/04/14 05:50:49;;;;;;;14.30;5.47;;;;;;;8.26;nan;98801.94;4973478;28;20031;-59
2022/04/14 05:53:16;;;;;;;10.80;4.70;;;;;;;8.42;nan;98789.06;4969140;28;20027;-59
2022/04/14 05:55:42;;;;;;;14.10;5.57;;;;;;;8.69;nan;98792.25;4969533;28;20059;-59
2022/04/14 05:58:07;;;;;;;9.97;5.80;;;;;;;8.86;nan;98771.66;4973025;28;20142;-59
2022/04/14 06:00:35;;;;;;;13.57;5.13;;;;;;;9.19;nan;98775.56;4971269;28;20110;-59
2022/04/14 06:03:02;;;;;;;5.47;4.97;;;;;;;9.48;nan;98780.31;4969370;28;20031;-60
2022/04/14 06:05:29;;;;;;;8.17;5.07;;;;;;;9.67;nan;98780.94;4969759;28;20169;-59
2022/04/14 06:07:55;;;;;;;4.80;4.37;;;;;;;9.82;nan;98773.91;4972002;28;20030;-59
2022/04/14 06:10:21;;;;;;;5.07;4.17;;;;;;;10.19;nan;98781.94;4971569;28;20501;-59
2022/04/14 06:12:47;;;;;;;6.27;4.53;;;;;;;10.32;nan;98770.63;4969056;28;20035;-60
2022/04/14 06:15:13;;;;;;;6.87;4.33;;;;;;;10.63;nan;98786.34;4970980;28;20046;-60
2022/04/14 06:17:39;;;;;;;7.10;4.67;;;;;;;10.92;nan;98783.28;4973725;28;20035;-59
2022/04/14 06:20:05;;;;;;;5.83;4.17;;;;;;;11.05;nan;98768.50;4971808;28;20398;-59
2022/04/14 06:22:30;;;;;;;5.63;3.75;;;;;;;11.35;nan;98785.91;4968501;28;20146;-59
2022/04/14 06:24:59;;;;;;;7.68;4.68;;;;;;;11.45;nan;98777.16;4968034;28;20058;-57
2022/04/14 06:27:24;;;;;;;4.05;3.67;;;;;;;11.67;nan;98780.13;4970627;28;20039;-60
2022/04/14 06:29:50;;;;;;;7.18;3.78;;;;;;;11.90;nan;98785.63;4968751;28;20081;-58
2022/04/14 06:32:15;;;;;;;5.78;4.47;;;;;;;12.01;nan;98786.22;4969157;28;20039;-57
2022/04/14 06:34:41;;;;;;;9.15;3.97;;;;;;;12.14;nan;98786.78;4970114;28;20054;-56
2022/04/14 06:37:06;;;;;;;8.35;4.35;;;;;;;12.21;nan;98790.94;4971165;28;20027;-58
2022/04/14 06:39:31;;;;;;;7.53;3.92;;;;;;;12.37;nan;98794.84;4969247;28;20776;-56
2022/04/14 06:41:57;;;;;;;7.50;4.32;;;;;;;12.45;nan;98794.66;4966776;28;20041;-57
2022/04/14 06:44:23;;;;;;;5.53;4.35;;;;;;;12.65;nan;98795.00;4970164;28;20847;-57
2022/04/14 06:46:48;;;;;;;9.50;4.65;;;;;;;12.73;nan;98788.78;4970296;28;20037;-58
2022/04/14 06:49:14;;;;;;;6.75;4.38;;;;;;;12.91;nan;98792.63;4970417;28;20042;-60
2022/04/14 06:51:39;;;;;;;7.10;5.00;;;;;;;12.95;nan;98783.09;4967340;28;20469;-60
2022/04/14 06:54:05;;;;;;;8.93;4.57;;;;;;;13.18;nan;98788.53;4971669;28;20548;-60
2022/04/14 06:56:30;;;;;;;7.05;4.55;;;;;;;13.30;nan;98779.63;4973142;28;20038;-60
2022/04/14 06:58:56;;;;;;;6.97;4.90;;;;;;;13.54;nan;98791.78;4971228;28;20041;-59
2022/04/14 07:01:23;;;;;;;8.23;4.68;;;;;;;13.64;nan;98788.09;4972700;28;20035;-60
2022/04/14 07:03:48;;;;;;;7.05;4.85;;;;;;;13.69;nan;98784.50;4975618;28;20038;-59
2022/04/14 07:06:14;;;;;;;7.53;4.63;;;;;;;13.93;nan;98800.09;4975125;28;20042;-59
2022/04/14 07:08:39;;;;;;;5.57;4.47;;;;;;;13.98;nan;98791.34;4972156;28;20027;-59
2022/04/14 07:11:05;;;;;;;8.25;5.15;;;;;;;14.14;nan;98796.88;4972979;28;20045;-61
2022/04/14 07:13:30;;;;;;;7.65;4.32;;;;;;;14.18;nan;98801.91;4972708;28;20057;-59
2022/04/14 07:15:57;;;;;;;7.75;4.28;;;;;;;14.31;nan;98799.78;4969449;28;20030;-60
2022/04/14 07:18:24;;;;;;;6.28;4.40;;;;;;;14.34;nan;98788.56;4972333;28;20031;-60
2022/04/14 07:20:49;;;;;;;4.70;3.97;;;;;;;14.53;nan;98795.69;4972260;28;20117;-59
2022/04/14 07:23:15;;;;;;;11.18;4.85;;;;;;;14.63;nan;98803.97;4974285;28;20051;-60
2022/04/14 07:25:40;;;;;;;6.50;4.25;;;;;;;14.71;nan;98791.66;4973975;28;20125;-61
2022/04/14 07:28:07;;;;;;;6.65;4.30;;;;;;;14.89;nan;98808.28;4971356;28;20051;-60
2022/04/14 07:30:34;;;;;;;6.75;4.88;;;;;;;14.94;nan;98803.78;4972833;28;20054;-60
2022/04/14 07:33:00;;;;;;;7.85;4.53;;;;;;;15.02;nan;98818.13;4976620;28;20818;-60
2022/04/14 07:35:26;;;;;;;9.60;4.05;;;;;;;14.98;nan;98800.19;4974554;28;20037;-60
2022/04/14 07:37:52;;;;;;;6.75;4.43;;;;;;;15.21;nan;98800.25;4976385;28;20489;-60
2022/04/14 07:40:18;;;;;;;5.05;4.22;;;;;;;15.45;nan;98794.22;4978487;28;20113;-61
2022/04/14 07:42:45;;;;;;;7.50;4.18;;;;;;;15.62;nan;98806.56;4976171;28;20145;-60
2022/04/14 07:45:13;;;;;;;4.63;3.75;;;;;;;15.74;nan;98798.34;4974128;28;20503;-60
2022/04/14 07:47:41;;;;;;;5.38;3.72;;;;;;;16.04;nan;98809.28;4971996;28;20077;-63
2022/04/14 07:50:08;;;;;;;6.20;4.35;;;;;;;15.97;nan;98789.75;4976588;28;20033;-60
2022/04/14 07:52:51;;;;;;;7.60;3.85;;;;;;;16.29;nan;98807.47;4978036;28;20031;-61
2022/04/14 07:55:30;;;;;;;6.53;3.72;;;;;;;16.52;nan;98790.16;4976463;28;20031;-69
2022/04/14 07:57:58;;;;;;;9.85;4.55;;;;;;;16.56;nan;98802.06;4974565;28;20077;-62
2022/04/14 08:00:24;;;;;;;6.57;4.25;;;;;;;16.77;nan;98801.22;4974552;28;20042;-61
2022/04/14 08:02:56;;;;;;;5.85;4.05;;;;;;;16.98;nan;98802.09;4972762;28;20461;-59
2022/04/14 08:05:36;;;;;;;5.15;4.10;;;;;;;17.22;nan;98806.25;4970111;28;20129;-60
2022/04/14 08:08:13;;;;;;;10.25;4.28;;;;;;;17.17;nan;98803.00;4971532;28;20065;-60
2022/04/14 08:10:43;;;;;;;6.00;4.15;;;;;;;17.32;nan;98795.41;4974701;28;20077;-61
2022/04/14 08:13:09;;;;;;;4.50;4.10;;;;;;;17.54;nan;98799.63;4971510;28;20030;-60
2022/04/14 08:15:36;;;;;;;6.95;4.32;;;;;;;17.87;nan;98795.56;4970575;28;20055;-60
2022/04/14 08:18:03;;;;;;;9.60;5.47;;;;;;;18.02;nan;98804.41;4973799;28;20045;-60
2022/04/14 08:20:29;;;;;;;4.95;3.72;;;;;;;18.28;nan;98804.03;4973128;28;20058;-61
2022/04/14 08:22:56;;;;;;;5.13;4.32;;;;;;;18.32;nan;98783.97;4972188;28;20079;-60
2022/04/14 08:25:26;;;;;;;9.10;4.75;;;;;;;18.56;nan;98799.22;4971873;28;20038;-60
2022/04/14 08:27:53;;;;;;;6.53;4.28;;;;;;;18.59;nan;98799.06;4983471;28;20038;-60
2022/04/14 08:30:20;;;;;;;7.75;4.90;;;;;;;18.76;nan;98810.38;4974301;28;20195;-60
2022/04/14 08:32:47;;;;;;;6.10;3.88;;;;;;;18.94;nan;98812.91;4970212;28;20034;-61
2022/04/14 08:35:13;;;;;;;7.65;5.13;;;;;;;19.01;nan;98808.28;4972030;28;20053;-58
2022/04/14 08:37:40;;;;;;;7.43;5.53;;;;;;;19.08;nan;98813.09;4974343;28;20122;-59
2022/04/14 08:40:07;;;;;;;6.63;5.50;;;;;;;19.09;nan;98812.16;4974392;28;20031;-60
2022/04/14 08:42:41;;;;;;;5.35;4.38;;;;;;;19.17;nan;98812.63;4970708;28;20031;-59
2022/04/14 08:45:13;;;;;;;8.10;4.88;;;;;;;19.21;nan;98821.09;4986612;28;20358;-58
2022/04/14 08:47:40;;;;;;;5.47;4.40;;;;;;;19.36;nan;98824.66;4972883;28;20046;-59
2022/04/14 08:50:07;;;;;;;5.25;3.97;;;;;;;19.47;nan;98818.03;4971303;28;20081;-60
2022/04/14 08:52:34;;;;;;;5.65;4.53;;;;;;;19.39;nan;98811.53;4969064;28;20042;-59
2022/04/14 08:55:04;;;;;;;7.32;5.20;;;;;;;19.55;nan;98828.03;4971644;28;20085;-59
2022/04/14 08:57:30;;;;;;;8.10;4.13;;;;;;;19.67;nan;98824.78;4972910;28;20038;-59
2022/04/14 08:59:57;;;;;;;4.13;3.80;;;;;;;19.61;nan;98809.50;4971476;28;20045;-59
2022/04/14 09:02:23;;;;;;;6.85;4.70;;;;;;;19.81;nan;98816.25;4969555;28;20120;-59
2022/04/14 09:04:49;;;;;;;5.03;4.53;;;;;;;19.84;nan;98816.94;4970521;28;20130;-59
2022/04/14 09:07:15;;;;;;;8.07;5.15;;;;;;;19.82;nan;98821.34;4973730;28;20171;-60
2022/04/14 09:09:41;;;;;;;6.07;4.45;;;;;;;19.95;nan;98819.78;4970818;28;20038;-59
2022/04/14 09:12:07;;;;;;;5.75;4.30;;;;;;;20.13;nan;98825.75;4970076;28;20038;-59
2022/04/14 09:14:34;;;;;;;5.68;4.43;;;;;;;20.24;nan;98819.97;4971870;28;20030;-59
2022/04/14 09:17:03;;;;;;;5.07;4.57;;;;;;;20.29;nan;98808.41;4971808;28;20129;-59
2022/04/14 09:19:30;;;;;;;4.60;4.18;;;;;;;20.51;nan;98795.88;4970483;28;20356;-59
2022/04/14 09:22:00;;;;;;;6.43;4.50;;;;;;;20.48;nan;98819.50;4969236;28;20041;-59
2022/04/14 09:24:49;;;;;;;5.03;4.55;;;;;;;20.47;nan;98814.34;4972493;28;20098;-59
2022/04/14 09:27:25;;;;;;;5.07;4.32;;;;;;;20.32;nan;98795.22;4971280;28;20066;-59
2022/04/14 09:29:51;;;;;;;4.95;4.50;;;;;;;20.58;nan;98801.53;4969119;28;20034;-59
2022/04/14 09:32:30;;;;;;;5.95;4.15;;;;;;;20.69;nan;98814.81;4971048;28;20031;-59
2022/04/14 09:34:56;;;;;;;5.13;4.05;;;;;;;20.78;nan;98809.09;4971607;28;20046;-59
2022/04/14 09:37:23;;;;;;;6.38;4.35;;;;;;;20.75;nan;98809.25;4970753;28;20045;-59
2022/04/14 09:40:08;;;;;;;6.40;5.00;;;;;;;20.75;nan;98804.03;4969112;28;20061;-60
2022/04/14 09:42:43;;;;;;;4.55;3.85;;;;;;;20.91;nan;98804.00;4970759;28;20753;-58
2022/04/14 09:45:21;;;;;;;5.00;4.32;;;;;;;21.04;nan;98799.75;4973472;28;20041;-59
2022/04/14 09:47:48;;;;;;;5.97;4.35;;;;;;;21.08;nan;98801.25;4969369;28;20038;-59
2022/04/14 09:50:39;;;;;;;6.90;5.50;;;;;;;21.24;nan;98799.44;4969112;28;20509;-59
2022/04/14 09:53:11;;;;;;;7.47;5.35;;;;;;;21.30;nan;98787.81;4972590;28;20045;-58
2022/04/14 09:55:42;;;;;;;6.53;4.18;;;;;;;21.33;nan;98785.00;4970640;28;20039;-59
2022/04/14 09:58:17;;;;;;;6.82;4.63;;;;;;;21.40;nan;98792.38;4969524;28;20098;-59
2022/04/14 10:00:51;;;;;;;11.30;5.70;;;;;;;21.49;nan;98792.75;4970697;28;20038;-59
2022/04/14 10:03:23;;;;;;;7.32;4.68;;;;;;;21.50;nan;98791.81;4971798;28;20050;-60
2022/04/14 10:05:52;;;;;;;6.55;5.38;;;;;;;21.54;nan;98778.50;4970790;28;20035;-60
2022/04/14 10:08:18;;;;;;;7.78;5.72;;;;;;;21.50;nan;98777.00;4969174;28;20075;-59
2022/04/14 10:10:46;;;;;;;5.15;4.65;;;;;;;21.71;nan;98782.69;4971463;28;20067;-59
2022/04/14 10:13:14;;;;;;;4.72;3.95;;;;;;;21.77;nan;98785.75;4971098;28;20089;-59
2022/04/14 10:15:42;;;;;;;5.75;4.90;;;;;;;21.79;nan;98783.88;4967758;28;20368;-59
2022/04/14 10:18:10;;;;;;;5.45;4.43;;;;;;;21.87;nan;98765.13;4966425;28;20052;-62
2022/04/14 10:20:37;;;;;;;4.75;4.25;;;;;;;21.80;nan;98777.75;4972804;28;20041;-59
2022/04/14 10:23:04;;;;;;;5.40;4.28;;;;;;;21.94;nan;98771.66;4970780;28;20090;-59
2022/04/14 10:25:30;;;;;;;6.15;4.65;;;;;;;22.04;nan;98774.53;4968494;28;20053;-60
2022/04/14 10:28:00;;;;;;;8.85;4.85;;;;;;;22.06;nan;98776.13;4969350;28;20508;-60
2022/04/14 10:30:26;;;;;;;4.20;3.80;;;;;;;21.94;nan;98756.00;4972597;28;20042;-59
2022/04/14 10:32:56;;;;;;;4.28;3.72;;;;;;;21.98;nan;98759.28;4974289;28;20031;-60
2022/04/14 10:35:23;;;;;;;4.60;4.20;;;;;;;22.28;nan;98765.13;4973696;28;20058;-60
2022/04/14 10:38:05;;;;;;;6.32;4.20;;;;;;;22.57;nan;98758.88;4973073;28;20071;-60
2022/04/14 10:40:32;;;;;;;3.83;3.50;;;;;;;22.63;nan;98750.63;4975882;28;20034;-60
2022/04/14 10:42:58;;;;;;;6.82;3.92;;;;;;;22.60;nan;98755.22;4974002;28;20501;-59
2022/04/14 10:45:24;;;;;;;6.72;4.10;;;;;;;22.63;nan;98758.47;4973081;28;20464;-61
2022/04/14 10:47:50;;;;;;;5.95;4.22;;;;;;;22.57;nan;98714.44;4973290;28;20061;-60
2022/04/14 10:50:21;;;;;;;4.38;4.00;;;;;;;22.74;nan;98747.34;4977121;28;20397;-60
2022/04/14 10:53:02;;;;;;;4.38;3.97;;;;;;;22.92;nan;98748.69;4973140;28;20443;-60
2022/04/14 10:55:39;;;;;;;5.68;4.75;;;;;;;22.83;nan;98736.25;4971758;28;20073;-59
2022/04/14 10:58:06;;;;;;;4.18;3.78;;;;;;;23.01;nan;98740.25;4975985;28;20388;-60
2022/04/14 11:00:31;;;;;;;6.65;3.88;;;;;;;23.10;nan;98754.47;4975753;28;20110;-60
2022/04/14 11:03:15;;;;;;;7.65;4.40;;;;;;;23.01;nan;98745.47;4972770;28;20039;-60
2022/04/14 11:05:49;;;;;;;5.40;4.10;;;;;;;23.17;nan;98747.88;4973439;28;20052;-60
2022/04/14 11:08:25;;;;;;;3.75;3.45;;;;;;;23.16;nan;98741.00;4975108;28;20034;-60
2022/04/14 11:10:57;;;;;;;4.75;4.30;;;;;;;23.10;nan;98744.00;4974530;28;20111;-61
2022/04/14 11:14:03;;;;;;;4.15;3.75;;;;;;;23.02;nan;98747.16;4971195;28;20037;-60
2022/04/14 11:16:46;;;;;;;7.10;3.95;;;;;;;23.05;nan;98749.56;4973013;28;20042;-64
2022/04/14 11:19:15;;;;;;;4.95;3.60;;;;;;;23.11;nan;98749.16;4974572;28;20125;-60
2022/04/14 11:21:58;;;;;;;4.88;4.22;;;;;;;22.89;nan;98735.00;4971984;28;20614;-60
2022/04/14 11:24:36;;;;;;;5.07;3.58;;;;;;;23.34;nan;98749.38;4973347;28;20494;-60
2022/04/14 11:27:14;;;;;;;5.78;4.40;;;;;;;23.20;nan;98742.47;4974125;28;20030;-60
2022/04/14 11:29:41;;;;;;;7.57;3.83;;;;;;;23.20;nan;98747.69;4972810;28;20547;-60
2022/04/14 11:32:07;;;;;;;4.07;3.35;;;;;;;23.21;nan;98731.06;4971668;28;20037;-60
2022/04/14 11:34:36;;;;;;;4.53;4.10;;;;;;;23.24;nan;98743.91;4973068;28;20086;-60
2022/04/14 11:37:03;;;;;;;4.95;3.92;;;;;;;23.18;nan;98747.78;4974317;28;20041;-59
2022/04/14 11:39:29;;;;;;;4.93;3.80;;;;;;;23.22;nan;98749.25;4972244;28;20059;-60
2022/04/14 11:42:06;;;;;;;5.25;3.65;;;;;;;23.14;nan;98720.16;4970097;28;21200;-59
2022/04/14 11:44:32;;;;;;;3.90;3.60;;;;;;;23.23;nan;98731.78;4972495;28;20038;-59
2022/04/14 11:47:00;;;;;;;5.97;4.28;;;;;;;23.35;nan;98737.94;4974913;28;20034;-59
2022/04/14 11:49:31;;;;;;;4.38;3.97;;;;;;;23.31;nan;98737.31;4970436;28;20393;-59
2022/04/14 11:52:04;;;;;;;3.78;3.42;;;;;;;23.30;nan;98722.53;4971324;28;20026;-59
2022/04/14 11:54:29;;;;;;;5.45;3.40;;;;;;;23.30;nan;98740.06;4975800;28;20480;-60